createdAt,value
2018-06-27T00:00:05.925Z,16.30
2018-06-27T00:01:05.531Z,16.40
2018-06-27T00:02:05.188Z,16.30
2018-06-27T00:03:05.698Z,16.40
2018-06-27T00:04:07.819Z,16.30
2018-06-27T00:05:11.631Z,16.30
2018-06-27T00:06:05.908Z,16.30
2018-06-27T00:07:05.683Z,16.30
2018-06-27T00:08:08.248Z,16.30
2018-06-27T00:09:05.684Z,16.30
2018-06-27T00:10:05.483Z,16.30
2018-06-27T00:11:08.573Z,16.30
2018-06-27T00:12:05.228Z,16.30
2018-06-27T00:13:11.022Z,16.20
2018-06-27T00:14:05.640Z,16.30
2018-06-27T00:15:08.119Z,16.30
2018-06-27T00:16:06.062Z,16.20
2018-06-27T00:17:06.022Z,16.30
2018-06-27T00:18:05.705Z,16.30
2018-06-27T00:19:05.305Z,16.30
2018-06-27T00:20:11.080Z,16.20
2018-06-27T00:21:10.861Z,16.20
2018-06-27T00:22:05.631Z,16.20
2018-06-27T00:23:05.736Z,16.10
2018-06-27T00:24:07.999Z,16.10
2018-06-27T00:25:05.481Z,16.10
2018-06-27T00:26:05.544Z,16.10
2018-06-27T00:27:05.259Z,16.10
2018-06-27T00:28:05.866Z,16.10
2018-06-27T00:29:05.518Z,16.10
2018-06-27T00:30:11.371Z,16.10
2018-06-27T00:31:08.605Z,16.00
2018-06-27T00:32:06.189Z,16.00
2018-06-27T00:33:06.074Z,16.00
2018-06-27T00:34:08.303Z,16.00
2018-06-27T00:35:06.086Z,16.00
2018-06-27T00:36:05.633Z,16.00
2018-06-27T00:37:05.770Z,16.00
2018-06-27T00:38:05.339Z,16.00
2018-06-27T00:39:05.988Z,16.00
2018-06-27T00:40:08.276Z,16.00
2018-06-27T00:41:10.793Z,16.10
2018-06-27T00:42:05.320Z,16.10
2018-06-27T00:43:13.228Z,16.10
2018-06-27T00:44:10.822Z,16.10
2018-06-27T00:45:07.850Z,16.10
2018-06-27T00:46:07.879Z,16.10
2018-06-27T00:47:05.412Z,16.10
2018-06-27T00:48:06.009Z,16.10
2018-06-27T00:49:05.827Z,16.10
2018-06-27T00:50:08.102Z,16.10
2018-06-27T00:51:08.112Z,16.00
2018-06-27T00:52:06.117Z,16.00
2018-06-27T00:53:05.783Z,16.00
2018-06-27T00:54:07.989Z,16.00
2018-06-27T00:55:08.038Z,16.00
2018-06-27T00:56:10.688Z,16.00
2018-06-27T00:57:07.939Z,16.00
2018-06-27T00:58:05.805Z,16.00
2018-06-27T00:59:05.385Z,16.00
2018-06-27T01:00:08.468Z,16.10
2018-06-27T01:01:08.711Z,16.10
2018-06-27T01:02:05.994Z,16.10
2018-06-27T01:03:05.580Z,16.10
2018-06-27T01:04:06.053Z,16.10
2018-06-27T01:05:05.659Z,16.10
2018-06-27T01:06:05.499Z,16.10
2018-06-27T01:07:05.887Z,16.10
2018-06-27T01:08:05.923Z,16.10
2018-06-27T01:09:05.608Z,16.10
2018-06-27T01:10:05.390Z,16.10
2018-06-27T01:11:07.854Z,16.10
2018-06-27T01:12:05.337Z,16.10
2018-06-27T01:13:07.953Z,16.20
2018-06-27T01:14:05.482Z,16.20
2018-06-27T01:15:05.492Z,16.20
2018-06-27T01:16:07.776Z,16.10
2018-06-27T01:17:05.821Z,16.20
2018-06-27T01:18:10.597Z,16.10
2018-06-27T01:19:05.942Z,16.10
2018-06-27T01:20:05.764Z,16.10
2018-06-27T01:21:08.183Z,16.10
2018-06-27T01:22:10.612Z,16.20
2018-06-27T01:23:11.153Z,16.20
2018-06-27T01:24:08.388Z,16.20
2018-06-27T01:25:05.577Z,16.10
2018-06-27T01:26:05.613Z,16.10
2018-06-27T01:27:05.190Z,16.10
2018-06-27T01:28:05.235Z,16.10
2018-06-27T01:29:06.032Z,16.10
2018-06-27T01:30:10.318Z,16.10
2018-06-27T01:31:08.762Z,16.00
2018-06-27T01:32:06.035Z,16.10
2018-06-27T01:33:07.761Z,16.00
2018-06-27T01:34:10.393Z,16.00
2018-06-27T01:35:12.062Z,16.00
2018-06-27T01:36:10.538Z,16.00
2018-06-27T01:37:08.707Z,16.00
2018-06-27T01:38:05.146Z,16.00
2018-06-27T01:39:06.005Z,16.00
2018-06-27T01:40:06.003Z,16.00
2018-06-27T01:41:11.104Z,16.00
2018-06-27T01:42:05.606Z,16.00
2018-06-27T01:43:08.328Z,15.90
2018-06-27T01:44:05.923Z,16.00
2018-06-27T01:45:05.878Z,16.00
2018-06-27T01:46:05.808Z,15.90
2018-06-27T01:47:10.477Z,15.90
2018-06-27T01:48:10.859Z,16.00
2018-06-27T01:49:07.789Z,15.90
2018-06-27T01:50:05.370Z,15.90
2018-06-27T01:51:06.034Z,15.90
2018-06-27T01:52:05.556Z,16.00
2018-06-27T01:53:05.519Z,16.00
2018-06-27T01:54:06.312Z,16.00
2018-06-27T01:55:05.919Z,15.90
2018-06-27T01:56:05.925Z,16.00
2018-06-27T01:57:05.488Z,16.00
2018-06-27T01:58:05.539Z,16.00
2018-06-27T01:59:05.203Z,16.00
2018-06-27T02:00:05.479Z,16.00
2018-06-27T02:01:08.247Z,16.00
2018-06-27T02:02:05.836Z,16.00
2018-06-27T02:03:05.818Z,16.10
2018-06-27T02:04:05.726Z,16.00
2018-06-27T02:05:06.176Z,16.00
2018-06-27T02:06:10.873Z,16.10
2018-06-27T02:07:06.239Z,16.10
2018-06-27T02:08:08.411Z,16.10
2018-06-27T02:09:05.939Z,16.00
2018-06-27T02:10:05.424Z,16.10
2018-06-27T02:11:08.525Z,16.00
2018-06-27T02:12:07.887Z,16.10
2018-06-27T02:13:05.260Z,16.00
2018-06-27T02:14:05.346Z,16.10
2018-06-27T02:15:05.238Z,16.10
2018-06-27T02:16:05.213Z,16.00
2018-06-27T02:17:06.008Z,16.00
2018-06-27T02:18:05.657Z,16.00
2018-06-27T02:19:08.493Z,16.00
2018-06-27T02:20:05.978Z,16.00
2018-06-27T02:21:05.725Z,16.00
2018-06-27T02:22:11.560Z,16.00
2018-06-27T02:23:05.753Z,16.00
2018-06-27T02:24:05.568Z,16.00
2018-06-27T02:25:05.260Z,16.00
2018-06-27T02:26:06.120Z,16.00
2018-06-27T02:27:05.725Z,16.00
2018-06-27T02:28:08.243Z,16.00
2018-06-27T02:29:08.029Z,16.00
2018-06-27T02:30:08.162Z,16.00
2018-06-27T02:31:05.789Z,16.00
2018-06-27T02:32:05.245Z,16.00
2018-06-27T02:33:10.552Z,16.00
2018-06-27T02:34:06.090Z,16.00
2018-06-27T02:35:08.785Z,16.00
2018-06-27T02:36:05.267Z,16.00
2018-06-27T02:37:08.323Z,16.00
2018-06-27T02:38:08.298Z,16.00
2018-06-27T02:39:05.806Z,16.00
2018-06-27T02:40:05.908Z,16.00
2018-06-27T02:41:05.999Z,16.00
2018-06-27T02:42:05.927Z,16.00
2018-06-27T02:43:05.522Z,16.00
2018-06-27T02:44:10.621Z,15.90
2018-06-27T02:45:06.515Z,15.90
2018-06-27T02:46:05.299Z,15.90
2018-06-27T02:47:05.678Z,15.90
2018-06-27T02:48:07.864Z,15.90
2018-06-27T02:49:12.951Z,15.80
2018-06-27T02:50:10.652Z,15.80
2018-06-27T02:51:08.586Z,15.80
2018-06-27T02:52:08.776Z,15.80
2018-06-27T02:53:05.398Z,15.80
2018-06-27T02:54:05.310Z,15.80
2018-06-27T02:55:05.286Z,15.80
2018-06-27T02:56:05.620Z,15.80
2018-06-27T02:57:10.379Z,15.80
2018-06-27T02:58:08.533Z,15.70
2018-06-27T02:59:05.960Z,15.70
2018-06-27T03:00:08.558Z,15.60
2018-06-27T03:01:06.021Z,15.70
2018-06-27T03:02:05.575Z,15.70
2018-06-27T03:03:05.272Z,15.60
2018-06-27T03:04:06.203Z,15.60
2018-06-27T03:05:05.838Z,15.60
2018-06-27T03:06:05.708Z,15.60
2018-06-27T03:07:05.328Z,15.60
2018-06-27T03:08:05.959Z,15.50
2018-06-27T03:09:06.036Z,15.50
2018-06-27T03:10:08.613Z,15.50
2018-06-27T03:11:06.251Z,15.50
2018-06-27T03:12:05.084Z,15.40
2018-06-27T03:13:05.716Z,15.40
2018-06-27T03:14:05.276Z,15.40
2018-06-27T03:15:06.105Z,15.40
2018-06-27T03:16:08.279Z,15.30
2018-06-27T03:17:05.932Z,15.30
2018-06-27T03:18:08.237Z,15.30
2018-06-27T03:19:05.787Z,15.30
2018-06-27T03:20:05.992Z,15.20
2018-06-27T03:21:06.150Z,15.30
2018-06-27T03:22:06.514Z,15.20
2018-06-27T03:23:08.637Z,15.20
2018-06-27T03:24:05.476Z,15.10
2018-06-27T03:25:05.485Z,15.10
2018-06-27T03:26:06.091Z,15.10
2018-06-27T03:27:11.072Z,15.00
2018-06-27T03:28:06.337Z,15.00
2018-06-27T03:29:06.149Z,15.00
2018-06-27T03:30:08.321Z,15.00
2018-06-27T03:31:06.352Z,15.00
2018-06-27T03:32:08.559Z,2.20
2018-06-27T03:33:06.466Z,15.00
2018-06-27T03:34:06.219Z,15.00
2018-06-27T03:35:05.771Z,15.00
2018-06-27T03:36:05.739Z,15.00
2018-06-27T03:37:07.961Z,15.00
2018-06-27T03:38:05.408Z,15.00
2018-06-27T03:39:06.252Z,15.00
2018-06-27T03:40:08.455Z,15.00
2018-06-27T03:41:08.513Z,15.10
2018-06-27T03:42:06.468Z,15.10
2018-06-27T03:43:06.343Z,15.10
2018-06-27T03:44:06.023Z,15.20
2018-06-27T03:45:05.518Z,15.30
2018-06-27T03:46:06.017Z,15.40
2018-06-27T03:47:15.910Z,15.60
2018-06-27T03:48:05.315Z,15.70
2018-06-27T03:49:05.914Z,15.80
2018-06-27T03:50:05.802Z,15.90
2018-06-27T03:51:05.711Z,16.00
2018-06-27T03:52:05.451Z,16.10
2018-06-27T03:53:05.239Z,16.30
2018-06-27T03:54:05.928Z,16.40
2018-06-27T03:55:08.082Z,16.60
2018-06-27T03:56:05.624Z,16.60
2018-06-27T03:57:05.986Z,16.70
2018-06-27T03:58:05.682Z,16.80
2018-06-27T03:59:05.398Z,16.80
2018-06-27T04:00:10.236Z,17.00
2018-06-27T04:01:05.787Z,17.00
2018-06-27T04:02:08.193Z,17.20
2018-06-27T04:03:05.732Z,17.20
2018-06-27T04:04:05.429Z,17.30
2018-06-27T04:05:05.236Z,17.40
2018-06-27T04:06:08.513Z,17.80
2018-06-27T04:07:06.397Z,17.80
2018-06-27T04:08:05.921Z,17.90
2018-06-27T04:09:06.152Z,18.10
2018-06-27T04:10:08.450Z,18.50
2018-06-27T04:11:06.483Z,18.50
2018-06-27T04:12:16.307Z,18.70
2018-06-27T04:13:10.955Z,18.80
2018-06-27T04:14:10.556Z,18.90
2018-06-27T04:15:05.731Z,18.90
2018-06-27T04:16:06.302Z,19.10
2018-06-27T04:17:08.522Z,19.20
2018-06-27T04:18:05.289Z,19.20
2018-06-27T04:19:10.294Z,19.30
2018-06-27T04:20:08.469Z,19.60
2018-06-27T04:21:06.123Z,19.60
2018-06-27T04:22:05.224Z,19.70
2018-06-27T04:23:05.802Z,19.80
2018-06-27T04:24:08.332Z,20.10
2018-06-27T04:25:08.478Z,20.20
2018-06-27T04:26:08.552Z,20.30
2018-06-27T04:27:05.817Z,20.40
2018-06-27T04:28:05.311Z,20.50
2018-06-27T04:29:11.080Z,20.60
2018-06-27T04:30:08.326Z,20.60
2018-06-27T04:31:05.883Z,20.60
2018-06-27T04:32:05.767Z,20.70
2018-06-27T04:33:07.864Z,20.90
2018-06-27T04:34:08.144Z,21.00
2018-06-27T04:35:08.635Z,21.20
2018-06-27T04:36:11.208Z,21.20
2018-06-27T04:37:05.909Z,21.30
2018-06-27T04:38:05.687Z,21.40
2018-06-27T04:39:10.435Z,21.50
2018-06-27T04:40:08.656Z,21.60
2018-06-27T04:41:05.267Z,21.60
2018-06-27T04:42:10.804Z,21.60
2018-06-27T04:43:06.124Z,21.60
2018-06-27T04:44:08.333Z,21.50
2018-06-27T04:45:05.937Z,21.50
2018-06-27T04:46:08.039Z,21.50
2018-06-27T04:47:10.788Z,21.50
2018-06-27T04:48:08.525Z,21.50
2018-06-27T04:49:06.130Z,21.50
2018-06-27T04:50:05.296Z,21.40
2018-06-27T04:51:05.941Z,21.40
2018-06-27T04:52:08.241Z,21.40
2018-06-27T04:53:08.621Z,21.50
2018-06-27T04:54:06.391Z,21.50
2018-06-27T04:55:06.228Z,21.50
2018-06-27T04:56:06.506Z,21.60
2018-06-27T04:57:13.287Z,21.70
2018-06-27T04:58:10.993Z,21.60
2018-06-27T04:59:08.495Z,21.60
2018-06-27T05:00:06.123Z,21.60
2018-06-27T05:01:08.261Z,21.70
2018-06-27T05:02:08.326Z,21.70
2018-06-27T05:03:10.879Z,21.70
2018-06-27T05:04:10.483Z,21.80
2018-06-27T05:05:08.584Z,21.80
2018-06-27T05:06:08.610Z,21.90
2018-06-27T05:07:06.008Z,21.90
2018-06-27T05:08:05.177Z,21.90
2018-06-27T05:09:08.443Z,22.00
2018-06-27T05:10:06.261Z,22.00
2018-06-27T05:11:10.878Z,22.00
2018-06-27T05:12:05.589Z,22.00
2018-06-27T05:13:05.272Z,22.10
2018-06-27T05:14:06.323Z,22.10
2018-06-27T05:15:05.902Z,22.10
2018-06-27T05:16:05.993Z,22.10
2018-06-27T05:17:06.015Z,22.20
2018-06-27T05:18:08.391Z,22.40
2018-06-27T05:19:08.414Z,22.50
2018-06-27T05:20:05.926Z,22.50
2018-06-27T05:21:08.172Z,22.70
2018-06-27T05:22:05.688Z,22.70
2018-06-27T05:23:07.856Z,22.70
2018-06-27T05:24:10.410Z,22.70
2018-06-27T05:25:05.467Z,22.80
2018-06-27T05:26:05.897Z,22.80
2018-06-27T05:27:10.638Z,22.80
2018-06-27T05:28:08.525Z,22.80
2018-06-27T05:29:05.910Z,22.80
2018-06-27T05:30:08.086Z,22.80
2018-06-27T05:31:05.529Z,22.80
2018-06-27T05:32:05.547Z,22.90
2018-06-27T05:33:05.419Z,22.90
2018-06-27T05:34:11.071Z,23.00
2018-06-27T05:35:10.534Z,23.00
2018-06-27T05:36:08.717Z,23.10
2018-06-27T05:37:07.904Z,23.10
2018-06-27T05:38:10.524Z,23.00
2018-06-27T05:39:08.559Z,23.00
2018-06-27T05:40:05.233Z,23.00
2018-06-27T05:41:05.977Z,23.00
2018-06-27T05:42:05.685Z,23.00
2018-06-27T05:43:10.406Z,23.00
2018-06-27T05:44:08.491Z,22.90
2018-06-27T05:45:11.075Z,22.90
2018-06-27T05:46:05.856Z,23.00
2018-06-27T05:47:05.811Z,23.00
2018-06-27T05:48:07.923Z,22.80
2018-06-27T05:49:05.444Z,22.80
2018-06-27T05:50:05.584Z,22.80
2018-06-27T05:51:05.522Z,22.70
2018-06-27T05:52:06.177Z,22.70
2018-06-27T05:53:05.887Z,22.70
2018-06-27T05:54:05.609Z,22.70
2018-06-27T05:55:05.847Z,22.70
2018-06-27T05:56:07.953Z,22.60
2018-06-27T05:57:10.736Z,22.60
2018-06-27T05:58:07.688Z,22.50
2018-06-27T05:59:05.325Z,22.50
2018-06-27T06:00:10.494Z,22.50
2018-06-27T06:01:05.849Z,22.50
2018-06-27T06:02:08.373Z,22.50
2018-06-27T06:03:05.884Z,22.50
2018-06-27T06:04:08.173Z,22.40
2018-06-27T06:05:13.211Z,22.50
2018-06-27T06:06:08.171Z,22.50
2018-06-27T06:07:06.739Z,22.40
2018-06-27T06:08:05.383Z,22.50
2018-06-27T06:09:06.391Z,22.40
2018-06-27T06:10:08.512Z,22.40
2018-06-27T06:11:06.126Z,22.30
2018-06-27T06:12:06.790Z,22.40
2018-06-27T06:13:07.988Z,22.30
2018-06-27T06:14:05.927Z,22.20
2018-06-27T06:15:08.287Z,22.30
2018-06-27T06:16:06.131Z,22.30
2018-06-27T06:17:08.247Z,22.30
2018-06-27T06:18:05.833Z,22.30
2018-06-27T06:19:05.750Z,22.30
2018-06-27T06:20:05.770Z,22.30
2018-06-27T06:21:05.592Z,22.40
2018-06-27T06:22:06.029Z,22.50
2018-06-27T06:23:06.207Z,22.50
2018-06-27T06:24:06.015Z,22.50
2018-06-27T06:25:05.824Z,22.50
2018-06-27T06:26:05.396Z,22.50
2018-06-27T06:27:08.330Z,22.60
2018-06-27T06:28:08.598Z,22.60
2018-06-27T06:29:06.069Z,22.60
2018-06-27T06:30:05.853Z,22.70
2018-06-27T06:31:05.595Z,22.80
2018-06-27T06:32:05.240Z,22.90
2018-06-27T06:33:08.664Z,23.20
2018-06-27T06:34:05.411Z,23.20
2018-06-27T06:35:06.406Z,23.30
2018-06-27T06:36:06.136Z,23.40
2018-06-27T06:37:06.485Z,23.50
2018-06-27T06:38:06.179Z,23.50
2018-06-27T06:39:05.839Z,23.50
2018-06-27T06:40:05.719Z,23.40
2018-06-27T06:41:05.355Z,23.30
2018-06-27T06:42:08.254Z,23.20
2018-06-27T06:43:05.953Z,23.20
2018-06-27T06:44:05.675Z,23.20
2018-06-27T06:45:05.941Z,23.10
2018-06-27T06:46:05.589Z,23.10
2018-06-27T06:47:06.009Z,23.00
2018-06-27T06:48:05.698Z,23.00
2018-06-27T06:49:05.751Z,23.00
2018-06-27T06:50:06.073Z,23.00
2018-06-27T06:51:07.897Z,22.80
2018-06-27T06:52:08.598Z,22.80
2018-06-27T06:53:05.314Z,22.70
2018-06-27T06:54:05.436Z,22.70
2018-06-27T06:55:06.133Z,22.70
2018-06-27T06:56:05.469Z,22.60
2018-06-27T06:57:06.080Z,22.50
2018-06-27T06:58:06.094Z,22.30
2018-06-27T06:59:05.800Z,22.10
2018-06-27T07:00:06.023Z,22.00
2018-06-27T07:01:08.339Z,21.60
2018-06-27T07:02:13.500Z,21.40
2018-06-27T07:03:06.076Z,21.40
2018-06-27T07:04:05.766Z,21.20
2018-06-27T07:05:05.751Z,21.00
2018-06-27T07:06:05.564Z,20.90
2018-06-27T07:07:06.543Z,20.80
2018-06-27T07:08:06.005Z,20.70
2018-06-27T07:09:10.729Z,20.60
2018-06-27T07:10:07.786Z,20.50
2018-06-27T07:11:07.917Z,20.50
2018-06-27T07:12:05.929Z,1.30
2018-06-27T07:13:08.148Z,20.50
2018-06-27T07:14:08.156Z,20.50
2018-06-27T07:15:05.627Z,20.50
2018-06-27T07:16:05.798Z,20.50
2018-06-27T07:17:05.958Z,20.60
2018-06-27T07:18:08.620Z,20.80
2018-06-27T07:19:08.782Z,21.00
2018-06-27T07:20:05.228Z,20.90
2018-06-27T07:21:08.626Z,21.20
2018-06-27T07:22:11.159Z,21.10
2018-06-27T07:23:08.382Z,21.40
2018-06-27T07:24:08.566Z,21.30
2018-06-27T07:25:06.090Z,21.30
2018-06-27T07:26:05.910Z,21.40
2018-06-27T07:27:08.105Z,21.30
2018-06-27T07:28:06.123Z,21.30
2018-06-27T07:29:08.261Z,21.30
2018-06-27T07:30:05.713Z,21.30
2018-06-27T07:31:05.381Z,21.20
2018-06-27T07:32:08.547Z,21.10
2018-06-27T07:33:11.128Z,21.10
2018-06-27T07:34:05.624Z,21.00
2018-06-27T07:35:07.815Z,20.90
2018-06-27T07:36:05.371Z,20.90
2018-06-27T07:37:05.402Z,20.80
2018-06-27T07:38:08.012Z,20.80
2018-06-27T07:39:05.475Z,20.80
2018-06-27T07:40:05.186Z,20.80
2018-06-27T07:41:08.626Z,20.70
2018-06-27T07:42:05.473Z,20.80
2018-06-27T07:43:07.961Z,20.80
2018-06-27T07:44:05.721Z,20.80
2018-06-27T07:45:05.507Z,20.90
2018-06-27T07:46:06.156Z,20.90
2018-06-27T07:47:05.257Z,21.00
2018-06-27T07:48:07.982Z,21.00
2018-06-27T07:49:08.019Z,21.00
2018-06-27T07:50:08.040Z,21.00
2018-06-27T07:51:05.494Z,21.10
2018-06-27T07:52:05.487Z,21.00
2018-06-27T07:53:06.330Z,21.00
2018-06-27T07:54:08.434Z,20.90
2018-06-27T07:55:05.860Z,20.90
2018-06-27T07:56:05.801Z,20.80
2018-06-27T07:57:07.995Z,20.60
2018-06-27T07:58:05.436Z,20.60
2018-06-27T07:59:08.682Z,20.40
2018-06-27T08:00:07.948Z,20.40
2018-06-27T08:01:07.964Z,20.30
2018-06-27T08:02:07.923Z,20.30
2018-06-27T08:03:10.448Z,20.30
2018-06-27T08:04:12.861Z,20.30
2018-06-27T08:05:08.194Z,20.40
2018-06-27T08:06:08.527Z,20.40
2018-06-27T08:07:08.538Z,20.40
2018-06-27T08:08:05.708Z,20.40
2018-06-27T08:09:14.129Z,20.40
2018-06-27T08:10:08.056Z,20.50
2018-06-27T08:11:05.650Z,20.50
2018-06-27T08:12:07.870Z,20.50
2018-06-27T08:13:08.200Z,20.50
2018-06-27T08:14:06.021Z,20.50
2018-06-27T08:15:07.762Z,20.40
2018-06-27T08:16:07.983Z,20.40
2018-06-27T08:17:05.525Z,20.40
2018-06-27T08:18:06.162Z,20.40
2018-06-27T08:19:05.575Z,20.40
2018-06-27T08:20:05.129Z,20.40
2018-06-27T08:21:05.128Z,20.50
2018-06-27T08:22:08.601Z,20.50
2018-06-27T08:23:06.175Z,20.50
2018-06-27T08:24:05.980Z,20.50
2018-06-27T08:25:05.958Z,20.50
2018-06-27T08:26:05.501Z,20.50
2018-06-27T08:27:05.624Z,20.50
2018-06-27T08:28:05.788Z,20.50
2018-06-27T08:29:08.325Z,20.50
2018-06-27T08:30:05.843Z,20.50
2018-06-27T08:31:05.892Z,20.50
2018-06-27T08:32:08.207Z,20.40
2018-06-27T08:33:06.015Z,20.40
2018-06-27T08:34:06.096Z,20.40
2018-06-27T08:35:05.627Z,20.40
2018-06-27T08:36:07.908Z,20.40
2018-06-27T08:37:10.499Z,20.30
2018-06-27T08:38:10.786Z,20.40
2018-06-27T08:39:06.743Z,20.30
2018-06-27T08:40:10.922Z,20.30
2018-06-27T08:41:06.126Z,20.30
2018-06-27T08:42:10.907Z,20.40
2018-06-27T08:43:08.127Z,20.50
2018-06-27T08:44:08.029Z,20.40
2018-06-27T08:45:10.484Z,20.40
2018-06-27T08:46:05.727Z,20.40
2018-06-27T08:47:06.562Z,20.40
2018-06-27T08:48:06.060Z,20.40
2018-06-27T08:49:05.991Z,20.40
2018-06-27T08:50:05.859Z,20.40
2018-06-27T08:51:10.678Z,20.40
2018-06-27T08:52:06.082Z,20.40
2018-06-27T08:53:08.199Z,20.40
2018-06-27T08:54:05.701Z,20.40
2018-06-27T08:55:05.852Z,20.40
2018-06-27T08:56:08.076Z,20.30
2018-06-27T08:57:05.511Z,20.40
2018-06-27T08:58:05.758Z,20.40
2018-06-27T08:59:07.864Z,20.30
2018-06-27T09:00:07.965Z,20.30
2018-06-27T09:01:06.070Z,20.30
2018-06-27T09:02:08.620Z,20.30
2018-06-27T09:03:05.783Z,20.30
2018-06-27T09:04:06.504Z,20.20
2018-06-27T09:05:08.782Z,20.20
2018-06-27T09:06:10.477Z,20.20
2018-06-27T09:07:05.736Z,20.30
2018-06-27T09:08:05.308Z,20.30
2018-06-27T09:09:05.812Z,20.30
2018-06-27T09:10:08.315Z,20.40
2018-06-27T09:11:05.446Z,20.30
2018-06-27T09:12:05.981Z,20.40
2018-06-27T09:13:08.094Z,20.40
2018-06-27T09:14:05.742Z,20.50
2018-06-27T09:15:05.436Z,20.50
2018-06-27T09:16:05.424Z,20.40
2018-06-27T09:17:06.178Z,20.40
2018-06-27T09:18:05.983Z,20.40
2018-06-27T09:19:08.264Z,20.50
2018-06-27T09:20:05.850Z,20.50
2018-06-27T09:21:06.247Z,20.50
2018-06-27T09:22:08.418Z,20.60
2018-06-27T09:23:07.774Z,20.60
2018-06-27T09:24:05.333Z,20.70
2018-06-27T09:25:05.959Z,20.70
2018-06-27T09:26:05.751Z,20.70
2018-06-27T09:27:08.050Z,20.90
2018-06-27T09:28:05.762Z,20.90
2018-06-27T09:29:05.444Z,21.00
2018-06-27T09:30:05.428Z,21.20
2018-06-27T09:31:06.297Z,21.30
2018-06-27T09:32:06.535Z,21.40
2018-06-27T09:33:05.250Z,21.50
2018-06-27T09:34:06.069Z,21.70
2018-06-27T09:35:05.917Z,21.70
2018-06-27T09:36:08.082Z,21.70
2018-06-27T09:37:05.953Z,21.70
2018-06-27T09:38:05.200Z,21.60
2018-06-27T09:39:05.905Z,21.60
2018-06-27T09:40:08.133Z,21.40
2018-06-27T09:41:05.603Z,21.40
2018-06-27T09:42:05.888Z,21.30
2018-06-27T09:43:08.175Z,21.30
2018-06-27T09:44:06.022Z,21.30
2018-06-27T09:45:10.720Z,21.10
2018-06-27T09:46:07.799Z,21.10
2018-06-27T09:47:07.943Z,21.10
2018-06-27T09:48:05.581Z,21.10
2018-06-27T09:49:06.249Z,21.10
2018-06-27T09:50:06.060Z,21.20
2018-06-27T09:51:05.776Z,21.10
2018-06-27T09:52:05.881Z,21.10
2018-06-27T09:53:05.708Z,21.00
2018-06-27T09:54:08.254Z,20.90
2018-06-27T09:55:11.070Z,20.90
2018-06-27T09:56:06.043Z,20.80
2018-06-27T09:57:07.972Z,20.80
2018-06-27T09:58:05.662Z,20.80
2018-06-27T09:59:05.538Z,20.90
2018-06-27T10:00:15.329Z,21.00
2018-06-27T10:01:05.807Z,21.00
2018-06-27T10:02:08.028Z,21.00
2018-06-27T10:03:05.996Z,21.10
2018-06-27T10:04:05.891Z,21.10
2018-06-27T10:05:08.213Z,21.20
2018-06-27T10:06:06.072Z,21.10
2018-06-27T10:07:05.954Z,21.20
2018-06-27T10:08:08.331Z,21.40
2018-06-27T10:09:05.838Z,21.40
2018-06-27T10:10:10.498Z,21.50
2018-06-27T10:11:06.146Z,21.60
2018-06-27T10:12:08.478Z,21.70
2018-06-27T10:13:06.057Z,21.70
2018-06-27T10:14:05.208Z,21.80
2018-06-27T10:15:08.384Z,21.80
2018-06-27T10:16:06.279Z,21.80
2018-06-27T10:17:06.189Z,21.80
2018-06-27T10:18:05.843Z,21.70
2018-06-27T10:19:08.040Z,21.60
2018-06-27T10:20:10.674Z,21.60
2018-06-27T10:21:07.702Z,21.60
2018-06-27T10:22:05.312Z,21.60
2018-06-27T10:23:05.339Z,21.50
2018-06-27T10:24:10.646Z,21.50
2018-06-27T10:25:08.602Z,21.40
2018-06-27T10:26:06.448Z,21.40
2018-06-27T10:27:06.604Z,21.40
2018-06-27T10:28:07.955Z,21.40
2018-06-27T10:29:08.108Z,21.30
2018-06-27T10:30:06.020Z,21.40
2018-06-27T10:31:08.453Z,21.40
2018-06-27T10:32:10.603Z,21.30
2018-06-27T10:33:06.019Z,21.30
2018-06-27T10:34:05.638Z,21.30
2018-06-27T10:35:10.365Z,21.30
2018-06-27T10:36:08.506Z,21.30
2018-06-27T10:37:06.156Z,21.30
2018-06-27T10:38:10.449Z,21.30
2018-06-27T10:39:08.572Z,21.40
2018-06-27T10:40:06.058Z,21.30
2018-06-27T10:41:10.766Z,21.30
2018-06-27T10:42:05.196Z,21.30
2018-06-27T10:43:05.330Z,21.30
2018-06-27T10:44:11.129Z,21.30
2018-06-27T10:45:10.608Z,21.10
2018-06-27T10:46:05.521Z,21.10
2018-06-27T10:47:08.753Z,21.00
2018-06-27T10:48:05.972Z,21.00
2018-06-27T10:49:05.756Z,21.00
2018-06-27T10:50:06.099Z,20.90
2018-06-27T10:51:08.355Z,20.90
2018-06-27T10:52:06.214Z,20.90
2018-06-27T10:53:06.477Z,20.90
2018-06-27T10:54:06.294Z,20.90
2018-06-27T10:55:05.913Z,21.00
2018-06-27T10:56:05.630Z,21.00
2018-06-27T10:57:05.380Z,21.00
2018-06-27T10:58:05.665Z,21.00
2018-06-27T10:59:10.384Z,21.10
2018-06-27T11:00:05.934Z,21.10
2018-06-27T11:01:06.117Z,21.10
2018-06-27T11:02:07.952Z,21.10
2018-06-27T11:03:05.450Z,21.10
2018-06-27T11:04:10.314Z,21.20
2018-06-27T11:05:05.791Z,21.20
2018-06-27T11:06:10.527Z,21.20
2018-06-27T11:07:06.016Z,21.20
2018-06-27T11:08:08.192Z,21.10
2018-06-27T11:09:05.779Z,21.10
2018-06-27T11:10:06.145Z,21.10
2018-06-27T11:11:05.686Z,21.10
2018-06-27T11:12:05.596Z,21.10
2018-06-27T11:13:05.155Z,21.20
2018-06-27T11:14:05.750Z,21.20
2018-06-27T11:15:05.761Z,21.30
2018-06-27T11:16:05.565Z,21.30
2018-06-27T11:17:10.297Z,21.40
2018-06-27T11:18:08.678Z,21.50
2018-06-27T11:19:07.735Z,21.40
2018-06-27T11:20:05.160Z,21.40
2018-06-27T11:21:08.698Z,21.40
2018-06-27T11:22:08.057Z,21.40
2018-06-27T11:23:08.092Z,21.40
2018-06-27T11:24:05.835Z,21.40
2018-06-27T11:25:05.838Z,21.50
2018-06-27T11:26:06.107Z,21.50
2018-06-27T11:27:05.296Z,21.50
2018-06-27T11:28:05.302Z,21.50
2018-06-27T11:29:11.059Z,21.50
2018-06-27T11:30:13.083Z,21.50
2018-06-27T11:31:05.690Z,21.50
2018-06-27T11:32:05.722Z,21.50
2018-06-27T11:33:05.649Z,21.50
2018-06-27T11:34:05.613Z,21.40
2018-06-27T11:35:05.269Z,21.40
2018-06-27T11:36:10.961Z,21.30
2018-06-27T11:37:11.024Z,21.30
2018-06-27T11:38:08.304Z,21.30
2018-06-27T11:39:05.406Z,21.30
2018-06-27T11:40:11.197Z,21.30
2018-06-27T11:41:05.867Z,21.30
2018-06-27T11:42:05.742Z,21.20
2018-06-27T11:43:13.336Z,21.20
2018-06-27T11:44:06.103Z,21.20
2018-06-27T11:45:06.187Z,21.20
2018-06-27T11:46:07.097Z,21.20
2018-06-27T11:47:06.277Z,21.20
2018-06-27T11:48:11.040Z,21.20
2018-06-27T11:49:06.024Z,21.20
2018-06-27T11:50:05.692Z,21.20
2018-06-27T11:51:05.773Z,21.20
2018-06-27T11:52:08.091Z,21.20
2018-06-27T11:53:07.758Z,21.20
2018-06-27T11:54:10.452Z,21.20
2018-06-27T11:55:10.338Z,21.30
2018-06-27T11:56:08.596Z,21.30
2018-06-27T11:57:11.091Z,21.30
2018-06-27T11:58:08.257Z,21.30
2018-06-27T11:59:07.982Z,21.30
2018-06-27T12:00:05.499Z,21.30
2018-06-27T12:01:10.566Z,21.30
2018-06-27T12:02:06.192Z,21.30
2018-06-27T12:03:11.115Z,21.30
2018-06-27T12:04:08.320Z,21.30
2018-06-27T12:05:06.098Z,21.30
2018-06-27T12:06:05.861Z,21.40
2018-06-27T12:07:10.405Z,21.30
2018-06-27T12:08:08.524Z,21.30
2018-06-27T12:09:05.544Z,21.30
2018-06-27T12:10:10.317Z,21.20
2018-06-27T12:11:05.938Z,21.30
2018-06-27T12:12:05.880Z,21.30
2018-06-27T12:13:05.622Z,21.20
2018-06-27T12:14:10.411Z,21.20
2018-06-27T12:15:06.205Z,21.20
2018-06-27T12:16:05.657Z,21.20
2018-06-27T12:17:06.006Z,21.10
2018-06-27T12:18:06.691Z,21.20
2018-06-27T12:19:05.402Z,21.20
2018-06-27T12:20:08.711Z,21.30
2018-06-27T12:21:10.312Z,21.30
2018-06-27T12:22:05.992Z,21.30
2018-06-27T12:23:06.197Z,21.30
2018-06-27T12:24:06.291Z,21.40
2018-06-27T12:25:11.127Z,21.50
2018-06-27T12:26:08.269Z,21.60
2018-06-27T12:27:05.906Z,21.60
2018-06-27T12:28:13.391Z,21.70
2018-06-27T12:29:05.908Z,21.60
2018-06-27T12:30:05.978Z,21.70
2018-06-27T12:31:08.115Z,21.70
2018-06-27T12:32:05.900Z,21.70
2018-06-27T12:33:08.199Z,21.80
2018-06-27T12:34:08.358Z,21.90
2018-06-27T12:35:08.507Z,21.90
2018-06-27T12:36:08.761Z,21.90
2018-06-27T12:37:10.412Z,21.80
2018-06-27T12:38:05.796Z,21.80
2018-06-27T12:39:07.936Z,21.70
2018-06-27T12:40:05.410Z,21.80
2018-06-27T12:41:07.797Z,21.70
2018-06-27T12:42:05.293Z,21.70
2018-06-27T12:43:06.771Z,21.70
2018-06-27T12:44:05.424Z,21.70
2018-06-27T12:45:06.345Z,21.70
2018-06-27T12:46:08.659Z,21.70
2018-06-27T12:47:06.085Z,21.70
2018-06-27T12:48:08.187Z,21.70
2018-06-27T12:49:06.137Z,21.70
2018-06-27T12:50:10.914Z,21.70
2018-06-27T12:51:06.081Z,21.60
2018-06-27T12:52:08.284Z,21.50